Back to Top

Language: 

My Weather Underground Personal Weather Station Historical Data with Graphs...

Delerius Weather Station Historical Data
Daily Summary for February 24, 2017 Units:  Both    English   Metric
« Previous Day
Next Day »
Daily Weekly Monthly Yearly Custom
  High: Low: Average:
Temperature: 49.1 °F /  9.5 °C 37.1 °F /  2.8 °C 42.5 °F /  5.8 °C
Dew Point: 37.8 °F /  3.2 °C 33.6 °F /  0.9 °C 35.6 °F /  2 °C
Humidity: 91 % 60 % 77 %
Wind Speed: 14.0 mph /  22.5 km/h - 8.4 mph /  13.5 km/h
Wind Gust: 46.0 mph /  74 km/h - -
Wind:- - West
Pressure: 30.01 in /  1016.1 hPa 29.70 in /  1005.6 hPa -
Precipitation: 0.00 in /  0 mm    
Historical Graphs
 
 
Tabular Data for February 24, 2017
Time Temperature Dew Point Pressure Wind Wind Speed Wind Gust Humidity Rainfall Rate (Hourly) solar Conditions
00:00 39.3 °F /  4.1 °C 36.3 °F /  2.4 °C 29.70 in /  1005.6 hPa West 9.0 mph /  14.5 km/h 46.0 mph /  74 km/h 89 % 0.00 in /  0 mm 0 W/m2
00:05 39.4 °F /  4.1 °C 36.4 °F /  2.4 °C 29.70 in /  1005.6 hPa WNW 9.0 mph /  14.5 km/h 46.0 mph /  74 km/h 89 % 0.00 in /  0 mm 0 W/m2
00:15 39.4 °F /  4.1 °C 36.7 °F /  2.6 °C 29.70 in /  1005.6 hPa WNW 8.0 mph /  12.9 km/h 13.0 mph /  20.9 km/h 90 % 0.00 in /  0 mm 0 W/m2
00:20 39.4 °F /  4.1 °C 36.7 °F /  2.6 °C 29.71 in /  1006 hPa WNW 7.0 mph /  11.3 km/h 7.0 mph /  11.3 km/h 90 % 0.00 in /  0 mm 0 W/m2
00:25 39.4 °F /  4.1 °C 36.7 °F /  2.6 °C 29.71 in /  1006 hPa NW 6.0 mph /  9.7 km/h 7.0 mph /  11.3 km/h 90 % 0.00 in /  0 mm 0 W/m2
00:35 39.5 °F /  4.2 °C 37.1 °F /  2.8 °C 29.72 in /  1006.3 hPa WNW 8.0 mph /  12.9 km/h 18.0 mph /  29 km/h 91 % 0.00 in /  0 mm 0 W/m2
00:40 39.6 °F /  4.2 °C 36.9 °F /  2.7 °C 29.72 in /  1006.3 hPa NW 12.0 mph /  19.3 km/h 12.0 mph /  19.3 km/h 90 % 0.00 in /  0 mm 0 W/m2
00:45 39.7 °F /  4.3 °C 37.0 °F /  2.8 °C 29.72 in /  1006.3 hPa WNW 14.0 mph /  22.5 km/h 18.0 mph /  29 km/h 90 % 0.00 in /  0 mm 0 W/m2
00:50 39.7 °F /  4.3 °C 36.7 °F /  2.6 °C 29.72 in /  1006.3 hPa WNW 13.0 mph /  20.9 km/h 13.0 mph /  20.9 km/h 89 % 0.00 in /  0 mm 0 W/m2
01:00 39.8 °F /  4.3 °C 36.5 °F /  2.5 °C 29.73 in /  1006.7 hPa NW 13.0 mph /  20.9 km/h 13.0 mph /  20.9 km/h 88 % 0.00 in /  0 mm 0 W/m2
01:10 39.9 °F /  4.4 °C 36.6 °F /  2.6 °C 29.73 in /  1006.7 hPa WNW 12.0 mph /  19.3 km/h 12.0 mph /  19.3 km/h 88 % 0.00 in /  0 mm 0 W/m2
01:15 40.0 °F /  4.4 °C 36.7 °F /  2.6 °C 29.73 in /  1006.7 hPa WNW 11.0 mph /  17.7 km/h 16.0 mph /  25.7 km/h 88 % 0.00 in /  0 mm 0 W/m2
01:20 40.0 °F /  4.4 °C 36.7 °F /  2.6 °C 29.73 in /  1006.7 hPa WNW 10.0 mph /  16.1 km/h 16.0 mph /  25.7 km/h 88 % 0.00 in /  0 mm 0 W/m2
01:25 40.1 °F /  4.5 °C 36.8 °F /  2.7 °C 29.74 in /  1007 hPa WNW 10.0 mph /  16.1 km/h 16.0 mph /  25.7 km/h 88 % 0.00 in /  0 mm 0 W/m2
01:30 40.1 °F /  4.5 °C 36.8 °F /  2.7 °C 29.74 in /  1007 hPa WNW 10.0 mph /  16.1 km/h 10.0 mph /  16.1 km/h 88 % 0.00 in /  0 mm 0 W/m2
01:40 40.1 °F /  4.5 °C 36.8 °F /  2.7 °C 29.74 in /  1007 hPa WNW 9.0 mph /  14.5 km/h 16.0 mph /  25.7 km/h 88 % 0.00 in /  0 mm 0 W/m2
01:45 40.1 °F /  4.5 °C 36.8 °F /  2.7 °C 29.74 in /  1007 hPa WNW 9.0 mph /  14.5 km/h 16.0 mph /  25.7 km/h 88 % 0.00 in /  0 mm 0 W/m2
01:50 40.1 °F /  4.5 °C 36.5 °F /  2.5 °C 29.74 in /  1007 hPa WNW 10.0 mph /  16.1 km/h 16.0 mph /  25.7 km/h 87 % 0.00 in /  0 mm 0 W/m2
01:55 40.0 °F /  4.4 °C 36.4 °F /  2.4 °C 29.75 in /  1007.3 hPa West 10.0 mph /  16.1 km/h 16.0 mph /  25.7 km/h 87 % 0.00 in /  0 mm 0 W/m2
02:00 39.9 °F /  4.4 °C 36.1 °F /  2.3 °C 29.75 in /  1007.3 hPa WNW 10.0 mph /  16.1 km/h 16.0 mph /  25.7 km/h 86 % 0.00 in /  0 mm 0 W/m2
02:05 39.8 °F /  4.3 °C 36.0 °F /  2.2 °C 29.75 in /  1007.3 hPa WNW 11.0 mph /  17.7 km/h 16.0 mph /  25.7 km/h 86 % 0.00 in /  0 mm 0 W/m2
02:15 39.6 °F /  4.2 °C 35.5 °F /  1.9 °C 29.75 in /  1007.3 hPa WNW 9.0 mph /  14.5 km/h 16.0 mph /  25.7 km/h 85 % 0.00 in /  0 mm 0 W/m2
02:20 39.5 °F /  4.2 °C 35.4 °F /  1.9 °C 29.75 in /  1007.3 hPa WNW 8.0 mph /  12.9 km/h 16.0 mph /  25.7 km/h 85 % 0.00 in /  0 mm 0 W/m2
02:30 39.4 °F /  4.1 °C 35.3 °F /  1.8 °C 29.76 in /  1007.7 hPa WNW 10.0 mph /  16.1 km/h 16.0 mph /  25.7 km/h 85 % 0.00 in /  0 mm 0 W/m2
02:35 39.4 °F /  4.1 °C 35.6 °F /  2 °C 29.76 in /  1007.7 hPa WNW 9.0 mph /  14.5 km/h 16.0 mph /  25.7 km/h 86 % 0.00 in /  0 mm 0 W/m2
02:40 39.4 °F /  4.1 °C 35.6 °F /  2 °C 29.77 in /  1008 hPa West 9.0 mph /  14.5 km/h 16.0 mph /  25.7 km/h 86 % 0.00 in /  0 mm 0 W/m2
02:50 39.1 °F /  3.9 °C 35.6 °F /  2 °C 29.78 in /  1008.4 hPa WNW 12.0 mph /  19.3 km/h 12.0 mph /  19.3 km/h 87 % 0.00 in /  0 mm 0 W/m2
02:55 38.8 °F /  3.8 °C 35.3 °F /  1.8 °C 29.78 in /  1008.4 hPa WNW 12.0 mph /  19.3 km/h 16.0 mph /  25.7 km/h 87 % 0.00 in /  0 mm 0 W/m2
03:00 38.6 °F /  3.7 °C 35.1 °F /  1.7 °C 29.78 in /  1008.4 hPa WNW 10.0 mph /  16.1 km/h 10.0 mph /  16.1 km/h 87 % 0.00 in /  0 mm 0 W/m2
03:05 38.4 °F /  3.6 °C 34.9 °F /  1.6 °C 29.78 in /  1008.4 hPa West 9.0 mph /  14.5 km/h 16.0 mph /  25.7 km/h 87 % 0.00 in /  0 mm 0 W/m2
03:10 38.2 °F /  3.4 °C 34.7 °F /  1.5 °C 29.78 in /  1008.4 hPa West 9.0 mph /  14.5 km/h 16.0 mph /  25.7 km/h 87 % 0.00 in /  0 mm 0 W/m2
03:20 38.3 °F /  3.5 °C 34.5 °F /  1.4 °C 29.78 in /  1008.4 hPa West 11.0 mph /  17.7 km/h 11.0 mph /  17.7 km/h 86 % 0.00 in /  0 mm 0 W/m2
03:25 38.1 °F /  3.4 °C 34.3 °F /  1.3 °C 29.79 in /  1008.7 hPa NW 10.0 mph /  16.1 km/h 16.0 mph /  25.7 km/h 86 % 0.00 in /  0 mm 0 W/m2
03:35 37.9 °F /  3.3 °C 34.1 °F /  1.2 °C 29.79 in /  1008.7 hPa WNW 9.0 mph /  14.5 km/h 16.0 mph /  25.7 km/h 86 % 0.00 in /  0 mm 0 W/m2
03:40 37.7 °F /  3.2 °C 33.9 °F /  1.1 °C 29.80 in /  1009 hPa WNW 8.0 mph /  12.9 km/h 16.0 mph /  25.7 km/h 86 % 0.00 in /  0 mm 0 W/m2
03:45 37.7 °F /  3.2 °C 33.9 °F /  1.1 °C 29.79 in /  1008.7 hPa West 8.0 mph /  12.9 km/h 16.0 mph /  25.7 km/h 86 % 0.00 in /  0 mm 0 W/m2
03:55 37.5 °F /  3.1 °C 34.0 °F /  1.1 °C 29.79 in /  1008.7 hPa NW 9.0 mph /  14.5 km/h 16.0 mph /  25.7 km/h 87 % 0.00 in /  0 mm 0 W/m2
04:00 37.5 °F /  3.1 °C 34.0 °F /  1.1 °C 29.80 in /  1009 hPa WNW 10.0 mph /  16.1 km/h 10.0 mph /  16.1 km/h 87 % 0.00 in /  0 mm 0 W/m2
04:05 37.5 °F /  3.1 °C 34.0 °F /  1.1 °C 29.80 in /  1009 hPa WNW 9.0 mph /  14.5 km/h 16.0 mph /  25.7 km/h 87 % 0.00 in /  0 mm 0 W/m2
04:10 37.5 °F /  3.1 °C 34.0 °F /  1.1 °C 29.80 in /  1009 hPa WNW 9.0 mph /  14.5 km/h 16.0 mph /  25.7 km/h 87 % 0.00 in /  0 mm 0 W/m2
04:15 37.5 °F /  3.1 °C 34.0 °F /  1.1 °C 29.80 in /  1009 hPa WNW 9.0 mph /  14.5 km/h 16.0 mph /  25.7 km/h 87 % 0.00 in /  0 mm 0 W/m2
04:20 37.4 °F /  3 °C 34.2 °F /  1.2 °C 29.81 in /  1009.4 hPa West 10.0 mph /  16.1 km/h 10.0 mph /  16.1 km/h 88 % 0.00 in /  0 mm 0 W/m2
04:30 37.4 °F /  3 °C 34.2 °F /  1.2 °C 29.81 in /  1009.4 hPa WSW 12.0 mph /  19.3 km/h 16.0 mph /  25.7 km/h 88 % 0.00 in /  0 mm 0 W/m2
04:35 37.4 °F /  3 °C 33.9 °F /  1.1 °C 29.81 in /  1009.4 hPa WNW 12.0 mph /  19.3 km/h 16.0 mph /  25.7 km/h 87 % 0.00 in /  0 mm 0 W/m2
04:40 37.3 °F /  2.9 °C 33.8 °F /  1 °C 29.81 in /  1009.4 hPa West 11.0 mph /  17.7 km/h 11.0 mph /  17.7 km/h 87 % 0.00 in /  0 mm 0 W/m2
04:45 37.2 °F /  2.9 °C 33.7 °F /  0.9 °C 29.82 in /  1009.7 hPa West 10.0 mph /  16.1 km/h 19.0 mph /  30.6 km/h 87 % 0.00 in /  0 mm 0 W/m2
04:50 37.2 °F /  2.9 °C 34.0 °F /  1.1 °C 29.82 in /  1009.7 hPa West 12.0 mph /  19.3 km/h 12.0 mph /  19.3 km/h 88 % 0.00 in /  0 mm 0 W/m2
05:00 37.1 °F /  2.8 °C 33.6 °F /  0.9 °C 29.82 in /  1009.7 hPa NW 10.0 mph /  16.1 km/h 16.0 mph /  25.7 km/h 87 % 0.00 in /  0 mm 0 W/m2
05:10 37.1 °F /  2.8 °C 33.6 °F /  0.9 °C 29.83 in /  1010 hPa WNW 11.0 mph /  17.7 km/h 16.0 mph /  25.7 km/h 87 % 0.00 in /  0 mm 0 W/m2
05:15 37.2 °F /  2.9 °C 33.7 °F /  0.9 °C 29.83 in /  1010 hPa WNW 11.0 mph /  17.7 km/h 16.0 mph /  25.7 km/h 87 % 0.00 in /  0 mm 0 W/m2
05:20 37.2 °F /  2.9 °C 33.7 °F /  0.9 °C 29.83 in /  1010 hPa NW 10.0 mph /  16.1 km/h 16.0 mph /  25.7 km/h 87 % 0.00 in /  0 mm 0 W/m2
05:25 37.2 °F /  2.9 °C 33.7 °F /  0.9 °C 29.83 in /  1010 hPa WNW 10.0 mph /  16.1 km/h 16.0 mph /  25.7 km/h 87 % 0.00 in /  0 mm 0 W/m2
05:35 37.3 °F /  2.9 °C 33.8 °F /  1 °C 29.83 in /  1010 hPa WNW 9.0 mph /  14.5 km/h 16.0 mph /  25.7 km/h 87 % 0.00 in /  0 mm 0 W/m2
05:40 37.2 °F /  2.9 °C 33.7 °F /  0.9 °C 29.83 in /  1010 hPa West 9.0 mph /  14.5 km/h 9.0 mph /  14.5 km/h 87 % 0.00 in /  0 mm 0 W/m2
05:45 37.2 °F /  2.9 °C 33.7 °F /  0.9 °C 29.84 in /  1010.4 hPa WNW 9.0 mph /  14.5 km/h 16.0 mph /  25.7 km/h 87 % 0.00 in /  0 mm 0 W/m2
05:50 37.2 °F /  2.9 °C 34.0 °F /  1.1 °C 29.84 in /  1010.4 hPa NW 9.0 mph /  14.5 km/h 9.0 mph /  14.5 km/h 88 % 0.00 in /  0 mm 0 W/m2
05:55 37.2 °F /  2.9 °C 34.0 °F /  1.1 °C 29.84 in /  1010.4 hPa NW 9.0 mph /  14.5 km/h 11.0 mph /  17.7 km/h 88 % 0.00 in /  0 mm 0 W/m2
06:00 37.3 °F /  2.9 °C 34.1 °F /  1.2 °C 29.84 in /  1010.4 hPa WNW 10.0 mph /  16.1 km/h 16.0 mph /  25.7 km/h 88 % 0.00 in /  0 mm 0 W/m2
06:10 37.5 °F /  3.1 °C 34.3 °F /  1.3 °C 29.85 in /  1010.7 hPa WNW 10.0 mph /  16.1 km/h 16.0 mph /  25.7 km/h 88 % 0.00 in /  0 mm 0 W/m2
06:15 37.6 °F /  3.1 °C 34.4 °F /  1.3 °C 29.85 in /  1010.7 hPa NW 12.0 mph /  19.3 km/h 16.0 mph /  25.7 km/h 88 % 0.00 in /  0 mm 0 W/m2
06:20 37.6 °F /  3.1 °C 34.1 °F /  1.2 °C 29.84 in /  1010.4 hPa West 13.0 mph /  20.9 km/h 13.0 mph /  20.9 km/h 87 % 0.00 in /  0 mm 0 W/m2
06:30 37.6 °F /  3.1 °C 34.1 °F /  1.2 °C 29.85 in /  1010.7 hPa WNW 12.0 mph /  19.3 km/h 12.0 mph /  19.3 km/h 87 % 0.00 in /  0 mm 0 W/m2
06:35 37.6 °F /  3.1 °C 34.1 °F /  1.2 °C 29.85 in /  1010.7 hPa WNW 12.0 mph /  19.3 km/h 16.0 mph /  25.7 km/h 87 % 0.00 in /  0 mm 0 W/m2
06:45 37.8 °F /  3.2 °C 34.3 °F /  1.3 °C 29.86 in /  1011.1 hPa West 13.0 mph /  20.9 km/h 16.0 mph /  25.7 km/h 87 % 0.00 in /  0 mm 0 W/m2
06:50 37.8 °F /  3.2 °C 34.3 °F /  1.3 °C 29.86 in /  1011.1 hPa West 13.0 mph /  20.9 km/h 19.0 mph /  30.6 km/h 87 % 0.00 in /  0 mm 0 W/m2
06:55 37.8 °F /  3.2 °C 34.3 °F /  1.3 °C 29.87 in /  1011.4 hPa WNW 13.0 mph /  20.9 km/h 19.0 mph /  30.6 km/h 87 % 0.00 in /  0 mm 0 W/m2
07:00 37.7 °F /  3.2 °C 34.2 °F /  1.2 °C 29.87 in /  1011.4 hPa WNW 12.0 mph /  19.3 km/h 12.0 mph /  19.3 km/h 87 % 0.00 in /  0 mm 0 W/m2
07:05 37.6 °F /  3.1 °C 34.1 °F /  1.2 °C 29.88 in /  1011.7 hPa WNW 10.0 mph /  16.1 km/h 16.0 mph /  25.7 km/h 87 % 0.00 in /  0 mm 5 W/m2
07:15 37.4 °F /  3 °C 34.2 °F /  1.2 °C 29.88 in /  1011.7 hPa West 9.0 mph /  14.5 km/h 16.0 mph /  25.7 km/h 88 % 0.00 in /  0 mm 9 W/m2
07:20 37.3 °F /  2.9 °C 34.1 °F /  1.2 °C 29.89 in /  1012.1 hPa WNW 8.0 mph /  12.9 km/h 8.0 mph /  12.9 km/h 88 % 0.00 in /  0 mm 12 W/m2
07:25 37.2 °F /  2.9 °C 34.0 °F /  1.1 °C 29.89 in /  1012.1 hPa WNW 7.0 mph /  11.3 km/h 16.0 mph /  25.7 km/h 88 % 0.00 in /  0 mm 21 W/m2
07:30 37.2 °F /  2.9 °C 34.0 °F /  1.1 °C 29.89 in /  1012.1 hPa WNW 6.0 mph /  9.7 km/h 16.0 mph /  25.7 km/h 88 % 0.00 in /  0 mm 30 W/m2
07:35 37.2 °F /  2.9 °C 34.3 °F /  1.3 °C 29.90 in /  1012.4 hPa WNW 7.0 mph /  11.3 km/h 16.0 mph /  25.7 km/h 89 % 0.00 in /  0 mm 42 W/m2
07:40 37.4 °F /  3 °C 34.2 °F /  1.2 °C 29.90 in /  1012.4 hPa WNW 8.0 mph /  12.9 km/h 8.0 mph /  12.9 km/h 88 % 0.00 in /  0 mm 26 W/m2
07:50 37.6 °F /  3.1 °C 34.4 °F /  1.3 °C 29.90 in /  1012.4 hPa NW 7.0 mph /  11.3 km/h 16.0 mph /  25.7 km/h 88 % 0.00 in /  0 mm 53 W/m2
07:55 37.8 °F /  3.2 °C 34.6 °F /  1.4 °C 29.91 in /  1012.8 hPa West 8.0 mph /  12.9 km/h 16.0 mph /  25.7 km/h 88 % 0.00 in /  0 mm 83 W/m2
08:05 38.6 °F /  3.7 °C 35.1 °F /  1.7 °C 29.91 in /  1012.8 hPa West 10.0 mph /  16.1 km/h 16.0 mph /  25.7 km/h 87 % 0.00 in /  0 mm 98 W/m2
08:10 38.9 °F /  3.8 °C 35.4 °F /  1.9 °C 29.91 in /  1012.8 hPa West 10.0 mph /  16.1 km/h 16.0 mph /  25.7 km/h 87 % 0.00 in /  0 mm 123 W/m2
08:15 39.2 °F /  4 °C 35.4 °F /  1.9 °C 29.91 in /  1012.8 hPa WNW 10.0 mph /  16.1 km/h 16.0 mph /  25.7 km/h 86 % 0.00 in /  0 mm 142 W/m2
08:25 39.7 °F /  4.3 °C 35.6 °F /  2 °C 29.92 in /  1013.1 hPa WNW 12.0 mph /  19.3 km/h 12.0 mph /  19.3 km/h 85 % 0.00 in /  0 mm 149 W/m2
08:30 39.9 °F /  4.4 °C 35.8 °F /  2.1 °C 29.92 in /  1013.1 hPa NW 10.0 mph /  16.1 km/h 20.0 mph /  32.2 km/h 85 % 0.00 in /  0 mm 163 W/m2
08:35 40.2 °F /  4.6 °C 35.8 °F /  2.1 °C 29.92 in /  1013.1 hPa WNW 10.0 mph /  16.1 km/h 20.0 mph /  32.2 km/h 84 % 0.00 in /  0 mm 190 W/m2
08:40 40.3 °F /  4.6 °C 35.8 °F /  2.1 °C 29.93 in /  1013.4 hPa WNW 12.0 mph /  19.3 km/h 12.0 mph /  19.3 km/h 84 % 0.00 in /  0 mm 204 W/m2
08:45 40.5 °F /  4.7 °C 36.0 °F /  2.2 °C 29.93 in /  1013.4 hPa WNW 12.0 mph /  19.3 km/h 16.0 mph /  25.7 km/h 84 % 0.00 in /  0 mm 197 W/m2
08:55 40.9 °F /  4.9 °C 36.1 °F /  2.3 °C 29.94 in /  1013.8 hPa NNW 11.0 mph /  17.7 km/h 16.0 mph /  25.7 km/h 83 % 0.00 in /  0 mm 248 W/m2
09:05 41.5 °F /  5.3 °C 36.4 °F /  2.4 °C 29.94 in /  1013.8 hPa West 10.0 mph /  16.1 km/h 11.0 mph /  17.7 km/h 82 % 0.00 in /  0 mm 227 W/m2
09:10 41.7 °F /  5.4 °C 36.6 °F /  2.6 °C 29.94 in /  1013.8 hPa WNW 10.0 mph /  16.1 km/h 18.0 mph /  29 km/h 82 % 0.00 in /  0 mm 244 W/m2
09:15 41.9 °F /  5.5 °C 36.5 °F /  2.5 °C 29.94 in /  1013.8 hPa West 10.0 mph /  16.1 km/h 18.0 mph /  29 km/h 81 % 0.00 in /  0 mm 287 W/m2
09:20 42.0 °F /  5.6 °C 36.6 °F /  2.6 °C 29.95 in /  1014.1 hPa West 11.0 mph /  17.7 km/h 16.0 mph /  25.7 km/h 81 % 0.00 in /  0 mm 301 W/m2
09:30 42.5 °F /  5.8 °C 36.8 °F /  2.7 °C 29.95 in /  1014.1 hPa NNW 10.0 mph /  16.1 km/h 10.0 mph /  16.1 km/h 80 % 0.00 in /  0 mm 288 W/m2
09:40 42.9 °F /  6.1 °C 36.8 °F /  2.7 °C 29.96 in /  1014.4 hPa NW 9.0 mph /  14.5 km/h 9.0 mph /  14.5 km/h 79 % 0.00 in /  0 mm 336 W/m2
09:45 43.3 °F /  6.3 °C 36.9 °F /  2.7 °C 29.96 in /  1014.4 hPa WNW 9.0 mph /  14.5 km/h 10.0 mph /  16.1 km/h 78 % 0.00 in /  0 mm 338 W/m2
09:50 43.5 °F /  6.4 °C 36.8 °F /  2.7 °C 29.96 in /  1014.4 hPa WNW 11.0 mph /  17.7 km/h 16.0 mph /  25.7 km/h 77 % 0.00 in /  0 mm 353 W/m2
09:55 43.6 °F /  6.4 °C 36.9 °F /  2.7 °C 29.96 in /  1014.4 hPa NW 11.0 mph /  17.7 km/h 16.0 mph /  25.7 km/h 77 % 0.00 in /  0 mm 366 W/m2
10:05 43.9 °F /  6.6 °C 36.8 °F /  2.7 °C 29.96 in /  1014.4 hPa NW 11.0 mph /  17.7 km/h 18.0 mph /  29 km/h 76 % 0.00 in /  0 mm 387 W/m2
10:10 44.2 °F /  6.8 °C 37.1 °F /  2.8 °C 29.96 in /  1014.4 hPa NW 11.0 mph /  17.7 km/h 11.0 mph /  17.7 km/h 76 % 0.00 in /  0 mm 399 W/m2
10:15 44.3 °F /  6.8 °C 37.2 °F /  2.9 °C 29.96 in /  1014.4 hPa WNW 9.0 mph /  14.5 km/h 16.0 mph /  25.7 km/h 76 % 0.00 in /  0 mm 417 W/m2
10:20 44.4 °F /  6.9 °C 37.0 °F /  2.8 °C 29.97 in /  1014.8 hPa West 11.0 mph /  17.7 km/h 16.0 mph /  25.7 km/h 75 % 0.00 in /  0 mm 446 W/m2
10:25 44.6 °F /  7 °C 37.5 °F /  3.1 °C 29.97 in /  1014.8 hPa WNW 12.0 mph /  19.3 km/h 16.0 mph /  25.7 km/h 76 % 0.00 in /  0 mm 473 W/m2
10:35 44.1 °F /  6.7 °C 36.7 °F /  2.6 °C 29.98 in /  1015.1 hPa WNW 9.0 mph /  14.5 km/h 16.0 mph /  25.7 km/h 75 % 0.00 in /  0 mm 162 W/m2
10:40 43.8 °F /  6.6 °C 36.7 °F /  2.6 °C 29.98 in /  1015.1 hPa NW 8.0 mph /  12.9 km/h 8.0 mph /  12.9 km/h 76 % 0.00 in /  0 mm 123 W/m2
10:45 43.7 °F /  6.5 °C 36.6 °F /  2.6 °C 29.98 in /  1015.1 hPa NW 9.0 mph /  14.5 km/h 15.0 mph /  24.1 km/h 76 % 0.00 in /  0 mm 144 W/m2
10:50 43.8 °F /  6.6 °C 36.4 °F /  2.4 °C 29.98 in /  1015.1 hPa WNW 11.0 mph /  17.7 km/h 11.0 mph /  17.7 km/h 75 % 0.00 in /  0 mm 179 W/m2
11:00 44.8 °F /  7.1 °C 37.4 °F /  3 °C 29.98 in /  1015.1 hPa WNW 7.0 mph /  11.3 km/h 16.0 mph /  25.7 km/h 75 % 0.00 in /  0 mm 186 W/m2
11:05 45.2 °F /  7.3 °C 37.4 °F /  3 °C 29.99 in /  1015.5 hPa NW 9.0 mph /  14.5 km/h 16.0 mph /  25.7 km/h 74 % 0.00 in /  0 mm 585 W/m2
11:15 46.2 °F /  7.9 °C 37.7 °F /  3.2 °C 29.99 in /  1015.5 hPa WNW 9.0 mph /  14.5 km/h 16.0 mph /  25.7 km/h 72 % 0.00 in /  0 mm 594 W/m2
11:20 46.3 °F /  7.9 °C 37.4 °F /  3 °C 29.99 in /  1015.5 hPa West 9.0 mph /  14.5 km/h 16.0 mph /  25.7 km/h 71 % 0.00 in /  0 mm 615 W/m2
11:25 46.3 °F /  7.9 °C 37.4 °F /  3 °C 30.00 in /  1015.8 hPa WNW 9.0 mph /  14.5 km/h 16.0 mph /  25.7 km/h 71 % 0.00 in /  0 mm 629 W/m2
11:30 46.5 °F /  8.1 °C 36.9 °F /  2.7 °C 30.00 in /  1015.8 hPa WNW 10.0 mph /  16.1 km/h 16.0 mph /  25.7 km/h 69 % 0.00 in /  0 mm 199 W/m2
11:35 46.3 °F /  7.9 °C 37.0 °F /  2.8 °C 30.00 in /  1015.8 hPa WNW 11.0 mph /  17.7 km/h 16.0 mph /  25.7 km/h 70 % 0.00 in /  0 mm 134 W/m2
11:45 46.7 °F /  8.2 °C 37.1 °F /  2.8 °C 29.99 in /  1015.5 hPa WNW 12.0 mph /  19.3 km/h 12.0 mph /  19.3 km/h 69 % 0.00 in /  0 mm 345 W/m2
11:50 46.5 °F /  8.1 °C 36.5 °F /  2.5 °C 29.99 in /  1015.5 hPa WNW 13.0 mph /  20.9 km/h 13.0 mph /  20.9 km/h 68 % 0.00 in /  0 mm 185 W/m2
11:55 46.7 °F /  8.2 °C 37.4 °F /  3 °C 30.00 in /  1015.8 hPa NW 11.0 mph /  17.7 km/h 16.0 mph /  25.7 km/h 70 % 0.00 in /  0 mm 142 W/m2
12:00 46.3 °F /  7.9 °C 36.3 °F /  2.4 °C 30.00 in /  1015.8 hPa West 10.0 mph /  16.1 km/h 16.0 mph /  25.7 km/h 68 % 0.00 in /  0 mm 120 W/m2
12:05 45.9 °F /  7.7 °C 35.9 °F /  2.2 °C 30.00 in /  1015.8 hPa WNW 10.0 mph /  16.1 km/h 16.0 mph /  25.7 km/h 68 % 0.00 in /  0 mm 570 W/m2
12:15 46.7 °F /  8.2 °C 36.7 °F /  2.6 °C 30.00 in /  1015.8 hPa WNW 9.0 mph /  14.5 km/h 15.0 mph /  24.1 km/h 68 % 0.00 in /  0 mm 580 W/m2
12:20 47.4 °F /  8.6 °C 37.7 °F /  3.2 °C 29.99 in /  1015.5 hPa West 10.0 mph /  16.1 km/h 16.0 mph /  25.7 km/h 69 % 0.00 in /  0 mm 601 W/m2
12:25 47.8 °F /  8.8 °C 37.4 °F /  3 °C 29.99 in /  1015.5 hPa West 10.0 mph /  16.1 km/h 16.0 mph /  25.7 km/h 67 % 0.00 in /  0 mm 647 W/m2
12:30 48.2 °F /  9 °C 37.8 °F /  3.2 °C 30.00 in /  1015.8 hPa West 10.0 mph /  16.1 km/h 10.0 mph /  16.1 km/h 67 % 0.00 in /  0 mm 323 W/m2
12:40 48.2 °F /  9 °C 35.8 °F /  2.1 °C 29.99 in /  1015.5 hPa WNW 11.0 mph /  17.7 km/h 16.0 mph /  25.7 km/h 62 % 0.00 in /  0 mm 366 W/m2
12:50 48.1 °F /  8.9 °C 36.5 °F /  2.5 °C 29.99 in /  1015.5 hPa WNW 12.0 mph /  19.3 km/h 12.0 mph /  19.3 km/h 64 % 0.00 in /  0 mm 520 W/m2
12:55 48.3 °F /  9.1 °C 36.3 °F /  2.4 °C 29.99 in /  1015.5 hPa WNW 12.0 mph /  19.3 km/h 14.0 mph /  22.5 km/h 63 % 0.00 in /  0 mm 533 W/m2
13:00 48.5 °F /  9.2 °C 36.5 °F /  2.5 °C 29.99 in /  1015.5 hPa NW 11.0 mph /  17.7 km/h 16.0 mph /  25.7 km/h 63 % 0.00 in /  0 mm 480 W/m2
13:05 48.8 °F /  9.3 °C 36.4 °F /  2.4 °C 29.99 in /  1015.5 hPa WNW 10.0 mph /  16.1 km/h 16.0 mph /  25.7 km/h 62 % 0.00 in /  0 mm 559 W/m2
13:10 48.9 °F /  9.4 °C 36.4 °F /  2.4 °C 29.99 in /  1015.5 hPa West 11.0 mph /  17.7 km/h 11.0 mph /  17.7 km/h 62 % 0.00 in /  0 mm 543 W/m2
13:15 49.0 °F /  9.4 °C 35.7 °F /  2.1 °C 29.99 in /  1015.5 hPa WNW 10.0 mph /  16.1 km/h 16.0 mph /  25.7 km/h 60 % 0.00 in /  0 mm 527 W/m2
13:25 48.9 °F /  9.4 °C 36.9 °F /  2.7 °C 29.99 in /  1015.5 hPa West 9.0 mph /  14.5 km/h 16.0 mph /  25.7 km/h 63 % 0.00 in /  0 mm 468 W/m2
13:35 49.1 °F /  9.5 °C 36.2 °F /  2.3 °C 30.00 in /  1015.8 hPa West 11.0 mph /  17.7 km/h 16.0 mph /  25.7 km/h 61 % 0.00 in /  0 mm 396 W/m2
13:40 48.9 °F /  9.4 °C 35.6 °F /  2 °C 29.99 in /  1015.5 hPa WNW 12.0 mph /  19.3 km/h 12.0 mph /  19.3 km/h 60 % 0.00 in /  0 mm 429 W/m2
13:45 48.7 °F /  9.3 °C 35.8 °F /  2.1 °C 30.00 in /  1015.8 hPa West 11.0 mph /  17.7 km/h 13.0 mph /  20.9 km/h 61 % 0.00 in /  0 mm 362 W/m2
13:55 48.4 °F /  9.1 °C 35.1 °F /  1.7 °C 29.99 in /  1015.5 hPa WSW 10.0 mph /  16.1 km/h 16.0 mph /  25.7 km/h 60 % 0.00 in /  0 mm 288 W/m2
14:00 48.2 °F /  9 °C 35.4 °F /  1.9 °C 29.99 in /  1015.5 hPa West 10.0 mph /  16.1 km/h 16.0 mph /  25.7 km/h 61 % 0.00 in /  0 mm 403 W/m2
14:10 48.4 °F /  9.1 °C 35.1 °F /  1.7 °C 30.00 in /  1015.8 hPa WNW 10.0 mph /  16.1 km/h 16.0 mph /  25.7 km/h 60 % 0.00 in /  0 mm 311 W/m2
14:15 48.2 °F /  9 °C 35.0 °F /  1.7 °C 30.00 in /  1015.8 hPa WNW 11.0 mph /  17.7 km/h 16.0 mph /  25.7 km/h 60 % 0.00 in /  0 mm 332 W/m2
14:20 48.0 °F /  8.9 °C 34.8 °F /  1.6 °C 30.00 in /  1015.8 hPa WNW 11.0 mph /  17.7 km/h 16.0 mph /  25.7 km/h 60 % 0.00 in /  0 mm 345 W/m2
14:25 48.1 °F /  8.9 °C 34.9 °F /  1.6 °C 30.00 in /  1015.8 hPa NW 11.0 mph /  17.7 km/h 16.0 mph /  25.7 km/h 60 % 0.00 in /  0 mm 396 W/m2
14:30 48.4 °F /  9.1 °C 35.1 °F /  1.7 °C 29.99 in /  1015.5 hPa WNW 11.0 mph /  17.7 km/h 11.0 mph /  17.7 km/h 60 % 0.00 in /  0 mm 399 W/m2
14:40 48.9 °F /  9.4 °C 36.0 °F /  2.2 °C 30.00 in /  1015.8 hPa West 10.0 mph /  16.1 km/h 16.0 mph /  25.7 km/h 61 % 0.00 in /  0 mm 355 W/m2
14:45 48.8 °F /  9.3 °C 35.5 °F /  1.9 °C 30.00 in /  1015.8 hPa SW 11.0 mph /  17.7 km/h 16.0 mph /  25.7 km/h 60 % 0.00 in /  0 mm 309 W/m2
14:50 48.6 °F /  9.2 °C 35.3 °F /  1.8 °C 29.99 in /  1015.5 hPa NW 11.0 mph /  17.7 km/h 16.0 mph /  25.7 km/h 60 % 0.00 in /  0 mm 292 W/m2
14:55 48.5 °F /  9.2 °C 35.2 °F /  1.8 °C 29.99 in /  1015.5 hPa WNW 11.0 mph /  17.7 km/h 16.0 mph /  25.7 km/h 60 % 0.00 in /  0 mm 315 W/m2
15:00 48.5 °F /  9.2 °C 35.7 °F /  2.1 °C 30.00 in /  1015.8 hPa WNW 10.0 mph /  16.1 km/h 16.0 mph /  25.7 km/h 61 % 0.00 in /  0 mm 332 W/m2
15:10 48.4 °F /  9.1 °C 35.6 °F /  2 °C 30.00 in /  1015.8 hPa WSW 11.0 mph /  17.7 km/h 11.0 mph /  17.7 km/h 61 % 0.00 in /  0 mm 311 W/m2
15:15 48.2 °F /  9 °C 35.4 °F /  1.9 °C 30.00 in /  1015.8 hPa WNW 10.0 mph /  16.1 km/h 16.0 mph /  25.7 km/h 61 % 0.00 in /  0 mm 285 W/m2
15:20 48.2 °F /  9 °C 35.4 °F /  1.9 °C 29.99 in /  1015.5 hPa WNW 9.0 mph /  14.5 km/h 16.0 mph /  25.7 km/h 61 % 0.00 in /  0 mm 146 W/m2
15:25 47.8 °F /  8.8 °C 35.4 °F /  1.9 °C 30.00 in /  1015.8 hPa West 9.0 mph /  14.5 km/h 16.0 mph /  25.7 km/h 62 % 0.00 in /  0 mm 105 W/m2
15:30 47.3 °F /  8.5 °C 34.9 °F /  1.6 °C 30.00 in /  1015.8 hPa West 9.0 mph /  14.5 km/h 9.0 mph /  14.5 km/h 62 % 0.00 in /  0 mm 104 W/m2
15:35 46.8 °F /  8.2 °C 35.3 °F /  1.8 °C 30.00 in /  1015.8 hPa West 9.0 mph /  14.5 km/h 16.0 mph /  25.7 km/h 64 % 0.00 in /  0 mm 104 W/m2
15:45 46.4 °F /  8 °C 36.0 °F /  2.2 °C 30.00 in /  1015.8 hPa WNW 8.0 mph /  12.9 km/h 16.0 mph /  25.7 km/h 67 % 0.00 in /  0 mm 95 W/m2
15:50 46.1 °F /  7.8 °C 35.7 °F /  2.1 °C 30.01 in /  1016.1 hPa West 9.0 mph /  14.5 km/h 9.0 mph /  14.5 km/h 67 % 0.00 in /  0 mm 83 W/m2
15:55 45.8 °F /  7.7 °C 35.8 °F /  2.1 °C 30.01 in /  1016.1 hPa West 10.0 mph /  16.1 km/h 10.0 mph /  16.1 km/h 68 % 0.00 in /  0 mm 81 W/m2
16:00 45.5 °F /  7.5 °C 35.9 °F /  2.2 °C 30.01 in /  1016.1 hPa WNW 9.0 mph /  14.5 km/h 16.0 mph /  25.7 km/h 69 % 0.00 in /  0 mm 77 W/m2
16:05 45.3 °F /  7.4 °C 35.7 °F /  2.1 °C 30.01 in /  1016.1 hPa West 9.0 mph /  14.5 km/h 16.0 mph /  25.7 km/h 69 % 0.00 in /  0 mm 70 W/m2
16:10 45.1 °F /  7.3 °C 35.9 °F /  2.2 °C 30.01 in /  1016.1 hPa West 9.0 mph /  14.5 km/h 9.0 mph /  14.5 km/h 70 % 0.00 in /  0 mm 60 W/m2
16:20 45.0 °F /  7.2 °C 36.2 °F /  2.3 °C 30.00 in /  1015.8 hPa West 7.0 mph /  11.3 km/h 16.0 mph /  25.7 km/h 71 % 0.00 in /  0 mm 56 W/m2
16:25 44.8 °F /  7.1 °C 36.0 °F /  2.2 °C 30.00 in /  1015.8 hPa West 6.0 mph /  9.7 km/h 16.0 mph /  25.7 km/h 71 % 0.00 in /  0 mm 54 W/m2
16:30 44.7 °F /  7.1 °C 36.2 °F /  2.3 °C 30.00 in /  1015.8 hPa West 6.0 mph /  9.7 km/h 6.0 mph /  9.7 km/h 72 % 0.00 in /  0 mm 58 W/m2
16:35 44.7 °F /  7.1 °C 36.2 °F /  2.3 °C 30.00 in /  1015.8 hPa West 5.0 mph /  8 km/h 16.0 mph /  25.7 km/h 72 % 0.00 in /  0 mm 51 W/m2
16:40 44.7 °F /  7.1 °C 36.6 °F /  2.6 °C 30.00 in /  1015.8 hPa West 4.0 mph /  6.4 km/h 4.0 mph /  6.4 km/h 73 % 0.00 in /  0 mm 46 W/m2
16:50 44.6 °F /  7 °C 36.5 °F /  2.5 °C 30.01 in /  1016.1 hPa West 2.0 mph /  3.2 km/h 16.0 mph /  25.7 km/h 73 % 0.00 in /  0 mm 33 W/m2
16:55 44.5 °F /  6.9 °C 36.4 °F /  2.4 °C 30.00 in /  1015.8 hPa West 3.0 mph /  4.8 km/h 16.0 mph /  25.7 km/h 73 % 0.00 in /  0 mm 23 W/m2
17:00 44.4 °F /  6.9 °C 36.3 °F /  2.4 °C 30.00 in /  1015.8 hPa WSW 3.0 mph /  4.8 km/h 16.0 mph /  25.7 km/h 73 % 0.00 in /  0 mm 18 W/m2
17:05 44.3 °F /  6.8 °C 36.2 °F /  2.3 °C 30.00 in /  1015.8 hPa WSW 4.0 mph /  6.4 km/h 16.0 mph /  25.7 km/h 73 % 0.00 in /  0 mm 14 W/m2
17:10 44.2 °F /  6.8 °C 36.4 °F /  2.4 °C 30.00 in /  1015.8 hPa WSW 4.0 mph /  6.4 km/h 4.0 mph /  6.4 km/h 74 % 0.00 in /  0 mm 11 W/m2
17:20 44.1 °F /  6.7 °C 36.3 °F /  2.4 °C 30.00 in /  1015.8 hPa WSW 1.0 mph /  1.6 km/h 1.0 mph /  1.6 km/h 74 % 0.00 in /  0 mm 7 W/m2
17:25 43.9 °F /  6.6 °C 36.5 °F /  2.5 °C 30.00 in /  1015.8 hPa Calm   16.0 mph /  25.7 km/h 75 % 0.00 in /  0 mm 5 W/m2
17:30 43.9 °F /  6.6 °C 36.5 °F /  2.5 °C 29.99 in /  1015.5 hPa Calm   16.0 mph /  25.7 km/h 75 % 0.00 in /  0 mm 0 W/m2
17:35 43.9 °F /  6.6 °C 36.8 °F /  2.7 °C 29.99 in /  1015.5 hPa Calm   16.0 mph /  25.7 km/h 76 % 0.00 in /  0 mm 0 W/m2
17:40 43.8 °F /  6.6 °C 36.7 °F /  2.6 °C 30.00 in /  1015.8 hPa Calm   16.0 mph /  25.7 km/h 76 % 0.00 in /  0 mm 0 W/m2
17:50 43.6 °F /  6.4 °C 36.9 °F /  2.7 °C 30.00 in /  1015.8 hPa Calm   16.0 mph /  25.7 km/h 77 % 0.00 in /  0 mm 0 W/m2
17:55 43.5 °F /  6.4 °C 36.8 °F /  2.7 °C 30.00 in /  1015.8 hPa Calm   16.0 mph /  25.7 km/h 77 % 0.00 in /  0 mm 0 W/m2
18:00 43.5 °F /  6.4 °C 36.4 °F /  2.4 °C 30.00 in /  1015.8 hPa WSW 1.0 mph /  1.6 km/h 1.0 mph /  1.6 km/h 76 % 0.00 in /  0 mm 0 W/m2
18:05 43.5 °F /  6.4 °C 36.4 °F /  2.4 °C 30.00 in /  1015.8 hPa WSW 1.0 mph /  1.6 km/h 16.0 mph /  25.7 km/h 76 % 0.00 in /  0 mm 0 W/m2
18:10 43.4 °F /  6.3 °C 36.3 °F /  2.4 °C 30.00 in /  1015.8 hPa WSW 1.0 mph /  1.6 km/h 16.0 mph /  25.7 km/h 76 % 0.00 in /  0 mm 0 W/m2
18:15 43.5 °F /  6.4 °C 36.1 °F /  2.3 °C 30.00 in /  1015.8 hPa WSW 2.0 mph /  3.2 km/h 16.0 mph /  25.7 km/h 75 % 0.00 in /  0 mm 0 W/m2
18:20 43.5 °F /  6.4 °C 36.1 °F /  2.3 °C 30.00 in /  1015.8 hPa WSW 3.0 mph /  4.8 km/h 16.0 mph /  25.7 km/h 75 % 0.00 in /  0 mm 0 W/m2
18:30 43.5 °F /  6.4 °C 35.8 °F /  2.1 °C 30.00 in /  1015.8 hPa WSW 3.0 mph /  4.8 km/h 3.0 mph /  4.8 km/h 74 % 0.00 in /  0 mm 0 W/m2
18:35 43.5 °F /  6.4 °C 35.8 °F /  2.1 °C 30.00 in /  1015.8 hPa WSW 2.0 mph /  3.2 km/h 16.0 mph /  25.7 km/h 74 % 0.00 in /  0 mm 0 W/m2
18:40 43.5 °F /  6.4 °C 35.4 °F /  1.9 °C 30.00 in /  1015.8 hPa WSW 1.0 mph /  1.6 km/h 16.0 mph /  25.7 km/h 73 % 0.00 in /  0 mm 0 W/m2
18:45 43.4 °F /  6.3 °C 35.3 °F /  1.8 °C 30.01 in /  1016.1 hPa WSW 1.0 mph /  1.6 km/h 16.0 mph /  25.7 km/h 73 % 0.00 in /  0 mm 0 W/m2
18:50 43.4 °F /  6.3 °C 35.3 °F /  1.8 °C 30.01 in /  1016.1 hPa WSW 2.0 mph /  3.2 km/h 16.0 mph /  25.7 km/h 73 % 0.00 in /  0 mm 0 W/m2
19:00 43.4 °F /  6.3 °C 35.0 °F /  1.7 °C 30.01 in /  1016.1 hPa WSW 3.0 mph /  4.8 km/h 16.0 mph /  25.7 km/h 72 % 0.00 in /  0 mm 0 W/m2
19:05 43.4 °F /  6.3 °C 35.0 °F /  1.7 °C 30.01 in /  1016.1 hPa SW 4.0 mph /  6.4 km/h 16.0 mph /  25.7 km/h 72 % 0.00 in /  0 mm 0 W/m2
19:10 43.4 °F /  6.3 °C 35.0 °F /  1.7 °C 30.00 in /  1015.8 hPa SW 4.0 mph /  6.4 km/h 16.0 mph /  25.7 km/h 72 % 0.00 in /  0 mm 0 W/m2
19:15 43.4 °F /  6.3 °C 35.0 °F /  1.7 °C 30.00 in /  1015.8 hPa SW 3.0 mph /  4.8 km/h 16.0 mph /  25.7 km/h 72 % 0.00 in /  0 mm 0 W/m2
19:25 43.4 °F /  6.3 °C 35.0 °F /  1.7 °C 30.00 in /  1015.8 hPa SW 3.0 mph /  4.8 km/h 16.0 mph /  25.7 km/h 72 % 0.00 in /  0 mm 0 W/m2
19:30 43.3 °F /  6.3 °C 34.9 °F /  1.6 °C 30.00 in /  1015.8 hPa SSW 3.0 mph /  4.8 km/h 3.0 mph /  4.8 km/h 72 % 0.00 in /  0 mm 0 W/m2
19:35 43.3 °F /  6.3 °C 34.9 °F /  1.6 °C 30.00 in /  1015.8 hPa SSW 3.0 mph /  4.8 km/h 16.0 mph /  25.7 km/h 72 % 0.00 in /  0 mm 0 W/m2
19:45 43.3 °F /  6.3 °C 34.9 °F /  1.6 °C 30.00 in /  1015.8 hPa SSW 3.0 mph /  4.8 km/h 16.0 mph /  25.7 km/h 72 % 0.00 in /  0 mm 0 W/m2
19:50 43.2 °F /  6.2 °C 35.1 °F /  1.7 °C 30.00 in /  1015.8 hPa SSW 4.0 mph /  6.4 km/h 4.0 mph /  6.4 km/h 73 % 0.00 in /  0 mm 0 W/m2
19:55 43.2 °F /  6.2 °C 35.1 °F /  1.7 °C 30.00 in /  1015.8 hPa SSW 4.0 mph /  6.4 km/h 16.0 mph /  25.7 km/h 73 % 0.00 in /  0 mm 0 W/m2
20:00 43.2 °F /  6.2 °C 35.1 °F /  1.7 °C 29.99 in /  1015.5 hPa SSW 3.0 mph /  4.8 km/h 16.0 mph /  25.7 km/h 73 % 0.00 in /  0 mm 0 W/m2
20:10 43.2 °F /  6.2 °C 35.5 °F /  1.9 °C 29.99 in /  1015.5 hPa SSW 5.0 mph /  8 km/h 16.0 mph /  25.7 km/h 74 % 0.00 in /  0 mm 0 W/m2
20:15 43.2 °F /  6.2 °C 35.5 °F /  1.9 °C 29.99 in /  1015.5 hPa South 5.0 mph /  8 km/h 16.0 mph /  25.7 km/h 74 % 0.00 in /  0 mm 0 W/m2
20:20 43.2 °F /  6.2 °C 35.5 °F /  1.9 °C 29.98 in /  1015.1 hPa SSW 5.0 mph /  8 km/h 5.0 mph /  8 km/h 74 % 0.00 in /  0 mm 0 W/m2
20:25 43.3 °F /  6.3 °C 35.6 °F /  2 °C 29.98 in /  1015.1 hPa SSW 5.0 mph /  8 km/h 6.0 mph /  9.7 km/h 74 % 0.00 in /  0 mm 0 W/m2
20:30 43.3 °F /  6.3 °C 35.6 °F /  2 °C 29.98 in /  1015.1 hPa South 5.0 mph /  8 km/h 5.0 mph /  8 km/h 74 % 0.00 in /  0 mm 0 W/m2
20:40 43.3 °F /  6.3 °C 35.9 °F /  2.2 °C 29.98 in /  1015.1 hPa SSW 6.0 mph /  9.7 km/h 16.0 mph /  25.7 km/h 75 % 0.00 in /  0 mm 0 W/m2
20:45 43.3 °F /  6.3 °C 35.9 °F /  2.2 °C 29.98 in /  1015.1 hPa WSW 6.0 mph /  9.7 km/h 16.0 mph /  25.7 km/h 75 % 0.00 in /  0 mm 0 W/m2
20:50 43.2 °F /  6.2 °C 35.8 °F /  2.1 °C 29.98 in /  1015.1 hPa SW 6.0 mph /  9.7 km/h 6.0 mph /  9.7 km/h 75 % 0.00 in /  0 mm 0 W/m2
20:55 43.2 °F /  6.2 °C 35.8 °F /  2.1 °C 29.98 in /  1015.1 hPa South 6.0 mph /  9.7 km/h 16.0 mph /  25.7 km/h 75 % 0.00 in /  0 mm 0 W/m2
21:00 43.2 °F /  6.2 °C 35.8 °F /  2.1 °C 29.98 in /  1015.1 hPa SSW 6.0 mph /  9.7 km/h 6.0 mph /  9.7 km/h 75 % 0.00 in /  0 mm 0 W/m2
21:15 43.3 °F /  6.3 °C 35.6 °F /  2 °C 29.98 in /  1015.1 hPa SW 6.0 mph /  9.7 km/h 16.0 mph /  25.7 km/h 74 % 0.00 in /  0 mm 0 W/m2
21:20 43.3 °F /  6.3 °C 35.6 °F /  2 °C 29.97 in /  1014.8 hPa South 6.0 mph /  9.7 km/h 16.0 mph /  25.7 km/h 74 % 0.00 in /  0 mm 0 W/m2
21:25 43.3 °F /  6.3 °C 35.6 °F /  2 °C 29.97 in /  1014.8 hPa SW 7.0 mph /  11.3 km/h 16.0 mph /  25.7 km/h 74 % 0.00 in /  0 mm 0 W/m2
21:30 43.3 °F /  6.3 °C 35.6 °F /  2 °C 29.96 in /  1014.4 hPa SSW 8.0 mph /  12.9 km/h 8.0 mph /  12.9 km/h 74 % 0.00 in /  0 mm 0 W/m2
21:35 43.3 °F /  6.3 °C 35.6 °F /  2 °C 29.96 in /  1014.4 hPa SSW 7.0 mph /  11.3 km/h 16.0 mph /  25.7 km/h 74 % 0.00 in /  0 mm 0 W/m2
21:45 43.2 °F /  6.2 °C 35.5 °F /  1.9 °C 29.96 in /  1014.4 hPa SSW 6.0 mph /  9.7 km/h 16.0 mph /  25.7 km/h 74 % 0.00 in /  0 mm 0 W/m2
21:50 43.2 °F /  6.2 °C 35.5 °F /  1.9 °C 29.96 in /  1014.4 hPa SSW 6.0 mph /  9.7 km/h 16.0 mph /  25.7 km/h 74 % 0.00 in /  0 mm 0 W/m2
21:55 43.2 °F /  6.2 °C 35.5 °F /  1.9 °C 29.96 in /  1014.4 hPa SW 7.0 mph /  11.3 km/h 16.0 mph /  25.7 km/h 74 % 0.00 in /  0 mm 0 W/m2
22:00 43.2 °F /  6.2 °C 35.5 °F /  1.9 °C 29.95 in /  1014.1 hPa SSW 8.0 mph /  12.9 km/h 16.0 mph /  25.7 km/h 74 % 0.00 in /  0 mm 0 W/m2
22:05 43.2 °F /  6.2 °C 35.5 °F /  1.9 °C 29.95 in /  1014.1 hPa SW 9.0 mph /  14.5 km/h 16.0 mph /  25.7 km/h 74 % 0.00 in /  0 mm 0 W/m2
22:10 43.2 °F /  6.2 °C 35.5 °F /  1.9 °C 29.95 in /  1014.1 hPa SSW 9.0 mph /  14.5 km/h 16.0 mph /  25.7 km/h 74 % 0.00 in /  0 mm 0 W/m2
22:20 43.3 °F /  6.3 °C 35.6 °F /  2 °C 29.95 in /  1014.1 hPa SW 9.0 mph /  14.5 km/h 16.0 mph /  25.7 km/h 74 % 0.00 in /  0 mm 0 W/m2
22:25 43.3 °F /  6.3 °C 35.2 °F /  1.8 °C 29.95 in /  1014.1 hPa SSW 9.0 mph /  14.5 km/h 16.0 mph /  25.7 km/h 73 % 0.00 in /  0 mm 0 W/m2
22:30 43.3 °F /  6.3 °C 35.2 °F /  1.8 °C 29.95 in /  1014.1 hPa SW 9.0 mph /  14.5 km/h 9.0 mph /  14.5 km/h 73 % 0.00 in /  0 mm 0 W/m2
22:35 43.4 °F /  6.3 °C 35.3 °F /  1.8 °C 29.94 in /  1013.8 hPa SW 10.0 mph /  16.1 km/h 11.0 mph /  17.7 km/h 73 % 0.00 in /  0 mm 0 W/m2
22:40 43.4 °F /  6.3 °C 35.3 °F /  1.8 °C 29.94 in /  1013.8 hPa SSW 9.0 mph /  14.5 km/h 9.0 mph /  14.5 km/h 73 % 0.00 in /  0 mm 0 W/m2
22:50 43.5 °F /  6.4 °C 35.1 °F /  1.7 °C 29.94 in /  1013.8 hPa SSW 9.0 mph /  14.5 km/h 16.0 mph /  25.7 km/h 72 % 0.00 in /  0 mm 0 W/m2
22:55 43.5 °F /  6.4 °C 35.1 °F /  1.7 °C 29.93 in /  1013.4 hPa SSW 8.0 mph /  12.9 km/h 16.0 mph /  25.7 km/h 72 % 0.00 in /  0 mm 0 W/m2
23:00 43.6 °F /  6.4 °C 35.2 °F /  1.8 °C 29.93 in /  1013.4 hPa WSW 7.0 mph /  11.3 km/h 16.0 mph /  25.7 km/h 72 % 0.00 in /  0 mm 0 W/m2
23:05 43.6 °F /  6.4 °C 35.2 °F /  1.8 °C 29.93 in /  1013.4 hPa WSW 9.0 mph /  14.5 km/h 16.0 mph /  25.7 km/h 72 % 0.00 in /  0 mm 0 W/m2
23:10 43.6 °F /  6.4 °C 35.2 °F /  1.8 °C 29.93 in /  1013.4 hPa South 8.0 mph /  12.9 km/h 16.0 mph /  25.7 km/h 72 % 0.00 in /  0 mm 0 W/m2
23:15 43.6 °F /  6.4 °C 35.5 °F /  1.9 °C 29.93 in /  1013.4 hPa SSW 8.0 mph /  12.9 km/h 16.0 mph /  25.7 km/h 73 % 0.00 in /  0 mm 0 W/m2
23:25 43.5 °F /  6.4 °C 35.8 °F /  2.1 °C 29.92 in /  1013.1 hPa SSW 8.0 mph /  12.9 km/h 16.0 mph /  25.7 km/h 74 % 0.00 in /  0 mm 0 W/m2
23:30 43.6 °F /  6.4 °C 35.9 °F /  2.2 °C 29.91 in /  1012.8 hPa SW 9.0 mph /  14.5 km/h 16.0 mph /  25.7 km/h 74 % 0.00 in /  0 mm 0 W/m2
23:35 43.6 °F /  6.4 °C 36.2 °F /  2.3 °C 29.92 in /  1013.1 hPa SSW 10.0 mph /  16.1 km/h 16.0 mph /  25.7 km/h 75 % 0.00 in /  0 mm 0 W/m2
23:40 43.6 °F /  6.4 °C 36.2 °F /  2.3 °C 29.91 in /  1012.8 hPa SW 10.0 mph /  16.1 km/h 10.0 mph /  16.1 km/h 75 % 0.00 in /  0 mm 0 W/m2
23:50 43.6 °F /  6.4 °C 36.5 °F /  2.5 °C 29.92 in /  1013.1 hPa SW 9.0 mph /  14.5 km/h 16.0 mph /  25.7 km/h 76 % 0.00 in /  0 mm 0 W/m2
23:55 43.6 °F /  6.4 °C 36.9 °F /  2.7 °C 29.92 in /  1013.1 hPa SSW 9.0 mph /  14.5 km/h 16.0 mph /  25.7 km/h 77 % 0.00 in /  0 mm 0 W/m2
Delerius-Weather
Compliments of Weather Underground - 2 mb

Data updates at regular intervals.